Mulvane, Kansas
Current Conditions -  °F | °C
As of 9:28 AM on Monday 22 Dec 2014 (Local Time) from KIAB Reporting Station
Moderate Fog Moderate Fog  
Wind Chill: 45°   Ceiling: 200
Heat Index: 45°   Visibility: 0.5mi
Dew Point: 45°   Wind: 3mph
Humidity: 100%   Direction: 220°SW
Pressure: 29.57"   Gusts: NA
Location:  37.47°N, 97.24°W
Report Text: KIAB 221528Z AUTO 22003KT 1/2SM R19/2800FT FG VV002 07/07 A2957 RMK AO2
Loading
Personal Weather Stations






























Interactive Weather Map New forecast layout! Learn more

10-Day Weather Forecast

Advertisements
Track Severe Weather on mobile